PHX weather

Phoenix Sky Harbor International Airport
Phoenix, Arizona, United States

Public forecast

Using degrees Fahrenheit for public forecast. Weather courtesy of forecast.io.

METAR (pilot weather report)

Retrieved 2018/02/24 10:51 UTC (1 hour ago):

KPHX 241051Z 27006KT 10SM CLR 06/M03 A3017 RMK AO2 SLP213 T00561033

TAF (pilot weather forecast)

Retrieved 2018/02/24 06:24 UTC (5 hours ago):

TAF KPHX 240521Z 2406/2512 29012KT P6SM SCT070 BKN100 FM240900 28005KT P6SM FEW100 TEMPO 2416/2420 VRB03KT FM250500 11005KT P6SM SKC